createdAt,value
2022-11-22T00:00:32.718Z,98791.16
2022-11-22T00:01:36.293Z,98795.34
2022-11-22T00:02:40.264Z,98795.08
2022-11-22T00:03:45.066Z,98786.37
2022-11-22T00:04:48.738Z,98787.97
2022-11-22T00:05:52.163Z,98800.23
2022-11-22T00:06:57.407Z,98800.23
2022-11-22T00:07:59.824Z,98790.68
2022-11-22T00:09:03.280Z,98793.97
2022-11-22T00:10:07.411Z,98795.39
2022-11-22T00:11:10.695Z,98805.39
2022-11-22T00:12:13.711Z,98805.84
2022-11-22T00:13:19.273Z,98802.95
2022-11-22T00:14:22.426Z,98796.31
2022-11-22T00:15:24.611Z,98798.27
2022-11-22T00:16:30.518Z,98796.94
2022-11-22T00:17:34.273Z,98798.89
2022-11-22T00:18:38.397Z,98793.77
2022-11-22T00:19:42.809Z,98798.45
2022-11-22T00:20:46.922Z,98789.91
2022-11-22T00:21:51.272Z,98797.58
2022-11-22T00:22:54.475Z,98788.20
2022-11-22T00:23:58.197Z,98796.56
2022-11-22T00:25:02.857Z,98786.63
2022-11-22T00:26:14.927Z,98786.80
2022-11-22T00:27:19.859Z,98794.47
2022-11-22T00:28:23.070Z,98795.81
2022-11-22T00:29:26.580Z,98791.14
2022-11-22T00:30:30.195Z,98801.16
2022-11-22T00:31:33.210Z,98798.36
2022-11-22T00:32:39.277Z,98797.97
2022-11-22T00:33:44.275Z,98810.28
2022-11-22T00:34:48.080Z,98805.97
2022-11-22T00:35:51.155Z,98799.48
2022-11-22T00:36:54.455Z,98804.19
2022-11-22T00:37:57.643Z,98806.81
2022-11-22T00:39:01.159Z,98802.25
2022-11-22T00:40:05.634Z,98798.66
2022-11-22T00:41:08.784Z,98795.45
2022-11-22T00:42:12.309Z,98795.07
2022-11-22T00:43:15.597Z,98801.33
2022-11-22T00:44:18.998Z,98806.66
2022-11-22T00:45:21.772Z,98791.69
2022-11-22T00:46:25.277Z,98803.19
2022-11-22T00:47:28.161Z,98803.11
2022-11-22T00:48:31.445Z,98800.77
2022-11-22T00:49:36.115Z,98803.95
2022-11-22T00:50:39.607Z,98806.48
2022-11-22T00:51:42.059Z,98812.78
2022-11-22T00:52:44.844Z,98813.63
2022-11-22T00:53:48.220Z,98810.54
2022-11-22T00:54:54.718Z,98812.44
2022-11-22T00:55:55.557Z,98810.70
2022-11-22T00:56:58.449Z,98812.67
2022-11-22T00:58:01.115Z,98811.34
2022-11-22T00:59:10.643Z,98804.28
2022-11-22T01:00:14.271Z,98802.68
2022-11-22T01:01:17.451Z,98800.61
2022-11-22T01:02:21.195Z,98801.92
2022-11-22T01:03:23.434Z,98803.82
2022-11-22T01:04:26.844Z,98797.14
2022-11-22T01:05:29.517Z,98793.51
2022-11-22T01:06:32.602Z,98805.17
2022-11-22T01:07:36.155Z,98797.48
2022-11-22T01:08:39.820Z,98797.73
2022-11-22T01:09:42.939Z,98805.84
2022-11-22T01:10:46.711Z,98808.75
2022-11-22T01:11:51.063Z,98810.61
2022-11-22T01:12:53.737Z,98808.22
2022-11-22T01:13:57.971Z,98812.69
2022-11-22T01:15:01.269Z,98816.16
2022-11-22T01:16:07.720Z,98810.24
2022-11-22T01:17:11.092Z,98809.45
2022-11-22T01:18:16.067Z,98811.14
2022-11-22T01:19:19.142Z,98821.91
2022-11-22T01:20:24.009Z,98829.14
2022-11-22T01:21:27.154Z,98838.05
2022-11-22T01:22:30.385Z,98836.39
2022-11-22T01:23:34.949Z,98837.91
2022-11-22T01:24:39.907Z,98839.16
2022-11-22T01:25:44.817Z,98833.36
2022-11-22T01:26:49.135Z,98843.40
2022-11-22T01:27:53.148Z,98839.52
2022-11-22T01:28:56.535Z,98844.00
2022-11-22T01:30:00.051Z,98843.83
2022-11-22T01:31:02.265Z,98844.84
2022-11-22T01:32:06.058Z,98848.71
2022-11-22T01:33:11.298Z,98851.69
2022-11-22T01:34:14.754Z,98847.14
2022-11-22T01:35:18.027Z,98848.23
2022-11-22T01:36:23.692Z,98855.41
2022-11-22T01:37:28.974Z,98857.53
2022-11-22T01:38:32.581Z,98859.39
2022-11-22T01:39:35.982Z,98864.19
2022-11-22T01:40:41.265Z,98857.61
2022-11-22T01:41:46.162Z,98863.50
2022-11-22T01:42:51.824Z,98854.91
2022-11-22T01:43:55.227Z,98863.25
2022-11-22T01:44:59.776Z,98855.48
2022-11-22T01:46:22.080Z,98860.88
2022-11-22T01:47:26.498Z,98861.40
2022-11-22T01:48:37.889Z,98867.04
2022-11-22T01:49:47.373Z,98866.63
2022-11-22T01:50:56.226Z,98864.43
2022-11-22T01:52:01.540Z,98866.02
2022-11-22T01:53:06.762Z,98869.16
2022-11-22T01:54:11.265Z,98861.99
2022-11-22T01:55:13.924Z,98859.70
2022-11-22T01:56:19.529Z,98861.12
2022-11-22T01:57:24.847Z,98856.36
2022-11-22T01:58:30.196Z,98859.79
2022-11-22T01:59:34.852Z,98869.45
2022-11-22T02:00:40.621Z,98869.45
2022-11-22T02:01:44.828Z,98865.80
2022-11-22T02:02:50.482Z,98869.80
2022-11-22T02:03:54.840Z,98856.78
2022-11-22T02:05:00.103Z,98866.83
2022-11-22T02:06:05.195Z,98867.17
2022-11-22T02:07:11.145Z,98868.09
2022-11-22T02:08:17.499Z,98875.61
2022-11-22T02:09:24.381Z,98870.14
2022-11-22T02:10:29.638Z,98872.75
2022-11-22T02:11:34.619Z,98876.64
2022-11-22T02:12:42.174Z,98879.99
2022-11-22T02:13:46.305Z,98886.92
2022-11-22T02:14:50.343Z,98882.57
2022-11-22T02:15:53.745Z,98883.19
2022-11-22T02:16:57.655Z,98882.67
2022-11-22T02:18:01.474Z,98877.52
2022-11-22T02:19:06.128Z,98880.80
2022-11-22T02:20:09.884Z,98885.34
2022-11-22T02:21:13.464Z,98889.54
2022-11-22T02:22:22.490Z,98890.80
2022-11-22T02:23:33.022Z,98887.80
2022-11-22T02:24:38.106Z,98887.06
2022-11-22T02:25:43.347Z,98894.42
2022-11-22T02:26:47.072Z,98895.50
2022-11-22T02:27:50.994Z,98901.30
2022-11-22T02:28:57.104Z,98899.16
2022-11-22T02:30:00.617Z,98903.61
2022-11-22T02:31:03.943Z,98905.81
2022-11-22T02:32:08.879Z,98907.99
2022-11-22T02:33:14.056Z,98910.69
2022-11-22T02:34:16.830Z,98907.30
2022-11-22T02:35:21.067Z,98909.69
2022-11-22T02:36:24.885Z,98909.30
2022-11-22T02:37:29.429Z,98913.96
2022-11-22T02:38:35.467Z,98911.69
2022-11-22T02:39:38.787Z,98914.67
2022-11-22T02:40:52.586Z,98921.16
2022-11-22T02:41:56.823Z,98929.59
2022-11-22T02:43:02.209Z,98917.81
2022-11-22T02:44:08.813Z,98925.13
2022-11-22T02:45:12.103Z,98929.44
2022-11-22T02:46:18.523Z,98924.28
2022-11-22T02:47:25.063Z,98928.84
2022-11-22T02:48:29.151Z,98922.00
2022-11-22T02:49:31.763Z,98925.47
2022-11-22T02:50:35.726Z,98927.02
2022-11-22T02:51:39.136Z,98926.97
2022-11-22T02:52:41.682Z,98929.92
2022-11-22T02:53:44.355Z,98926.69
2022-11-22T02:54:48.471Z,98926.83
2022-11-22T02:55:51.672Z,98928.94
2022-11-22T02:56:54.039Z,98925.06
2022-11-22T02:57:57.251Z,98924.20
2022-11-22T02:59:00.630Z,98923.89
2022-11-22T03:00:04.972Z,98924.35
2022-11-22T03:01:07.340Z,98929.44
2022-11-22T03:02:10.508Z,98930.44
2022-11-22T03:03:13.807Z,98941.52
2022-11-22T03:04:25.595Z,98935.14
2022-11-22T03:05:28.875Z,98933.52
2022-11-22T03:06:32.479Z,98931.91
2022-11-22T03:07:39.068Z,98945.55
2022-11-22T03:08:42.413Z,98943.00
2022-11-22T03:09:52.576Z,98941.93
2022-11-22T03:10:57.883Z,98935.78
2022-11-22T03:12:01.285Z,98943.14
2022-11-22T03:13:04.893Z,98936.22
2022-11-22T03:14:07.895Z,98941.16
2022-11-22T03:15:15.875Z,98944.98
2022-11-22T03:16:30.600Z,98943.92
2022-11-22T03:17:33.977Z,98950.85
2022-11-22T03:18:37.877Z,98950.92
2022-11-22T03:19:40.232Z,98957.00
2022-11-22T03:20:45.722Z,98948.93
2022-11-22T03:21:50.172Z,98963.38
2022-11-22T03:22:53.452Z,98964.92
2022-11-22T03:23:56.540Z,98966.23
2022-11-22T03:25:02.346Z,98964.91
2022-11-22T03:26:09.294Z,98964.83
2022-11-22T03:27:12.488Z,98963.14
2022-11-22T03:28:18.140Z,98959.65
2022-11-22T03:29:21.354Z,98956.26
2022-11-22T03:30:26.770Z,98950.67
2022-11-22T03:31:31.320Z,98950.48
2022-11-22T03:32:34.500Z,98953.61
2022-11-22T03:33:38.016Z,98947.23
2022-11-22T03:34:41.404Z,98956.84
2022-11-22T03:35:44.702Z,98955.44
2022-11-22T03:36:51.376Z,98957.69
2022-11-22T03:37:54.021Z,98962.61
2022-11-22T03:38:57.525Z,98956.61
2022-11-22T03:40:01.031Z,98964.20
2022-11-22T03:41:03.396Z,98964.98
2022-11-22T03:42:06.907Z,98979.14
2022-11-22T03:43:10.396Z,98983.88
2022-11-22T03:44:14.009Z,98987.45
2022-11-22T03:45:16.178Z,98981.97
2022-11-22T03:46:22.898Z,98985.61
2022-11-22T03:47:25.242Z,98986.74
2022-11-22T03:48:28.879Z,98994.91
2022-11-22T03:49:31.530Z,98988.33
2022-11-22T03:50:34.399Z,98992.17
2022-11-22T03:51:38.020Z,98991.47
2022-11-22T03:52:41.429Z,98992.17
2022-11-22T03:53:46.525Z,98993.14
2022-11-22T03:54:49.893Z,98994.48
2022-11-22T03:55:53.113Z,98997.34
2022-11-22T03:56:56.335Z,99005.00
2022-11-22T03:57:59.882Z,99001.05
2022-11-22T03:59:02.959Z,98994.59
2022-11-22T04:00:06.473Z,99006.70
2022-11-22T04:01:16.338Z,99008.84
2022-11-22T04:02:17.873Z,99006.62
2022-11-22T04:03:21.086Z,99010.89
2022-11-22T04:04:25.541Z,99007.50
2022-11-22T04:05:28.751Z,99006.11
2022-11-22T04:06:31.921Z,99004.27
2022-11-22T04:07:36.930Z,99008.20
2022-11-22T04:08:40.727Z,99015.27
2022-11-22T04:09:43.649Z,99009.27
2022-11-22T04:10:49.877Z,99008.91
2022-11-22T04:11:53.179Z,99014.41
2022-11-22T04:12:59.891Z,99015.27
2022-11-22T04:14:20.660Z,99006.44
2022-11-22T04:15:23.887Z,98998.41
2022-11-22T04:16:27.113Z,99001.80
2022-11-22T04:17:44.665Z,99010.04
2022-11-22T04:18:48.044Z,99007.22
2022-11-22T04:20:04.601Z,99007.02
2022-11-22T04:21:27.023Z,99014.85
2022-11-22T04:22:30.946Z,99007.92
2022-11-22T04:23:34.516Z,99015.06
2022-11-22T04:24:57.800Z,99019.30
2022-11-22T04:26:01.227Z,99013.57
2022-11-22T04:27:06.743Z,99014.48
2022-11-22T04:28:11.028Z,99009.27
2022-11-22T04:29:16.208Z,99015.91
2022-11-22T04:30:21.428Z,99019.65
2022-11-22T04:31:43.468Z,99026.22
2022-11-22T04:32:46.659Z,99028.11
2022-11-22T04:35:21.777Z,99023.16
2022-11-22T04:36:25.062Z,99031.80
2022-11-22T04:37:27.210Z,99031.86
2022-11-22T04:38:30.414Z,99032.23
2022-11-22T04:39:33.226Z,99033.15
2022-11-22T04:40:37.828Z,99031.78
2022-11-22T04:41:40.405Z,99039.83
2022-11-22T04:43:01.248Z,99032.49
2022-11-22T04:44:23.450Z,99036.49
2022-11-22T04:45:27.167Z,99040.45
2022-11-22T04:46:34.937Z,99035.36
2022-11-22T04:47:56.733Z,99037.52
2022-11-22T04:48:59.283Z,99037.52
2022-11-22T04:50:03.117Z,99038.89
2022-11-22T04:51:24.692Z,99046.21
2022-11-22T04:52:46.686Z,99046.67
2022-11-22T04:53:50.711Z,99040.37
2022-11-22T04:54:54.007Z,99046.17
2022-11-22T04:55:56.290Z,99057.72
2022-11-22T04:57:00.079Z,99052.11
2022-11-22T04:58:04.201Z,99064.57
2022-11-22T04:59:07.612Z,99060.66
2022-11-22T05:00:11.637Z,99063.00
2022-11-22T05:01:15.132Z,99065.22
2022-11-22T05:02:18.218Z,99065.30
2022-11-22T05:03:21.409Z,99058.80
2022-11-22T05:04:24.717Z,99060.56
2022-11-22T05:05:29.580Z,99066.99
2022-11-22T05:06:32.794Z,99062.28
2022-11-22T05:07:36.537Z,99060.66
2022-11-22T05:08:40.511Z,99062.92
2022-11-22T05:09:43.913Z,99069.54
2022-11-22T05:10:58.803Z,99063.59
2022-11-22T05:12:03.081Z,99069.61
2022-11-22T05:13:06.543Z,99070.52
2022-11-22T05:14:11.093Z,99077.84
2022-11-22T05:15:14.484Z,99078.37
2022-11-22T05:16:17.791Z,99080.98
2022-11-22T05:17:21.180Z,99079.60
2022-11-22T05:18:24.829Z,99083.72
2022-11-22T05:19:27.458Z,99086.34
2022-11-22T05:20:31.079Z,99084.64
2022-11-22T05:21:36.338Z,99080.16
2022-11-22T05:22:58.758Z,99086.81
2022-11-22T05:24:01.753Z,99098.39
2022-11-22T05:25:05.388Z,99095.77
2022-11-22T05:26:09.809Z,99099.41
2022-11-22T05:27:14.696Z,99104.20
2022-11-22T05:28:17.029Z,99106.61
2022-11-22T05:29:20.416Z,99108.17
2022-11-22T05:30:24.035Z,99111.84
2022-11-22T05:31:28.293Z,99113.09
2022-11-22T05:32:35.042Z,99120.46
2022-11-22T05:33:40.523Z,99117.98
2022-11-22T05:34:43.898Z,99116.63
2022-11-22T05:35:46.099Z,99119.68
2022-11-22T05:36:49.347Z,99112.04
2022-11-22T05:37:52.645Z,99117.84
2022-11-22T05:38:55.940Z,99123.86
2022-11-22T05:40:00.314Z,99115.30
2022-11-22T05:41:07.649Z,99119.75
2022-11-22T05:42:10.760Z,99124.13
2022-11-22T05:43:13.919Z,99125.41
2022-11-22T05:44:17.340Z,99124.70
2022-11-22T05:45:20.928Z,99122.84
2022-11-22T05:47:37.141Z,99124.27
2022-11-22T05:48:42.833Z,99126.41
2022-11-22T05:49:49.587Z,99129.12
2022-11-22T05:50:54.434Z,99134.34
2022-11-22T05:51:57.862Z,99126.30
2022-11-22T05:53:02.161Z,99129.77
2022-11-22T05:54:04.546Z,99127.28
2022-11-22T05:55:09.593Z,99125.37
2022-11-22T05:56:14.894Z,99123.02
2022-11-22T05:57:19.548Z,99126.84
2022-11-22T05:58:24.087Z,99132.47
2022-11-22T05:59:32.224Z,99126.00
2022-11-22T06:00:35.616Z,99133.78
2022-11-22T06:01:38.761Z,99130.91
2022-11-22T06:02:42.227Z,99134.45
2022-11-22T06:03:46.113Z,99132.15
2022-11-22T06:04:49.723Z,99134.70
2022-11-22T06:05:53.540Z,99131.96
2022-11-22T06:06:55.887Z,99138.58
2022-11-22T06:08:00.795Z,99144.52
2022-11-22T06:09:03.839Z,99149.38
2022-11-22T06:10:08.806Z,99148.31
2022-11-22T06:11:16.393Z,99141.88
2022-11-22T06:12:20.526Z,99148.10
2022-11-22T06:13:24.705Z,99149.02
2022-11-22T06:14:27.880Z,99145.55
2022-11-22T06:15:34.676Z,99148.24
2022-11-22T06:16:36.947Z,99160.08
2022-11-22T06:17:39.083Z,99156.69
2022-11-22T06:18:43.122Z,99156.38
2022-11-22T06:19:46.105Z,99153.41
2022-11-22T06:20:48.775Z,99153.41
2022-11-22T06:21:52.383Z,99158.42
2022-11-22T06:22:57.486Z,99160.66
2022-11-22T06:24:02.107Z,99157.93
2022-11-22T06:25:05.718Z,99155.87
2022-11-22T06:26:10.736Z,99159.91
2022-11-22T06:27:14.301Z,99155.83
2022-11-22T06:28:16.741Z,99155.03
2022-11-22T06:29:19.517Z,99156.88
2022-11-22T06:30:22.826Z,99154.29
2022-11-22T06:31:28.248Z,99164.37
2022-11-22T06:32:34.535Z,99162.00
2022-11-22T06:33:38.029Z,99169.88
2022-11-22T06:34:41.544Z,99170.20
2022-11-22T06:35:44.737Z,99170.98
2022-11-22T06:36:47.303Z,99175.59
2022-11-22T06:37:54.890Z,99178.13
2022-11-22T06:38:56.819Z,99173.70
2022-11-22T06:39:59.164Z,99175.19
2022-11-22T06:41:04.977Z,99173.11
2022-11-22T06:42:09.346Z,99182.09
2022-11-22T06:43:11.572Z,99176.01
2022-11-22T06:44:14.675Z,99180.32
2022-11-22T06:45:19.657Z,99170.37
2022-11-22T06:46:23.223Z,99174.20
2022-11-22T06:47:26.565Z,99173.81
2022-11-22T06:48:29.826Z,99172.36
2022-11-22T06:49:32.722Z,99177.70
2022-11-22T06:50:38.192Z,99180.80
2022-11-22T06:51:41.805Z,99181.91
2022-11-22T06:52:46.789Z,99182.52
2022-11-22T06:53:51.524Z,99182.90
2022-11-22T06:54:54.300Z,99189.84
2022-11-22T06:56:05.786Z,99187.33
2022-11-22T06:57:09.361Z,99198.36
2022-11-22T06:58:12.639Z,99194.11
2022-11-22T06:59:16.156Z,99194.26
2022-11-22T07:00:20.392Z,99197.41
2022-11-22T07:01:25.718Z,99197.34
2022-11-22T07:02:29.123Z,99202.44
2022-11-22T07:03:31.847Z,99199.56
2022-11-22T07:04:36.367Z,99204.13
2022-11-22T07:05:41.275Z,99198.72
2022-11-22T07:06:46.462Z,99195.91
2022-11-22T07:07:49.803Z,99199.14
2022-11-22T07:08:53.340Z,99199.03
2022-11-22T07:09:57.149Z,99203.21
2022-11-22T07:11:04.608Z,99206.75
2022-11-22T07:12:07.768Z,99213.33
2022-11-22T07:13:11.570Z,99213.40
2022-11-22T07:14:14.822Z,99208.73
2022-11-22T07:15:17.989Z,99205.48
2022-11-22T07:16:22.042Z,99210.29
2022-11-22T07:17:25.559Z,99200.77
2022-11-22T07:18:30.949Z,99210.95
2022-11-22T10:56:31.943Z,99287.88
2022-11-22T10:57:54.957Z,99295.41
2022-11-22T10:59:17.597Z,99290.89
2022-11-22T11:00:23.419Z,99284.63
2022-11-22T11:01:29.705Z,99289.92
2022-11-22T11:02:50.759Z,99288.38
2022-11-22T11:04:00.556Z,99291.27
2022-11-22T11:05:07.064Z,99289.34
2022-11-22T11:06:33.503Z,99294.42
2022-11-22T11:07:29.561Z,99294.50
2022-11-22T11:09:12.478Z,99304.20
2022-11-22T11:10:11.818Z,99298.03
2022-11-22T11:11:01.785Z,99291.46
2022-11-22T11:12:12.831Z,99290.16
2022-11-22T11:13:18.832Z,99291.38
2022-11-22T11:14:32.662Z,99291.34
2022-11-22T11:15:38.875Z,99294.28
2022-11-22T11:16:42.091Z,99284.55
2022-11-22T11:17:46.511Z,99287.95
2022-11-22T11:19:01.513Z,99294.16
2022-11-22T11:20:06.486Z,99297.80
2022-11-22T11:21:11.859Z,99293.86
2022-11-22T11:22:20.503Z,99302.27
2022-11-22T11:23:20.939Z,99296.70
2022-11-22T11:24:24.454Z,99301.95
2022-11-22T11:25:31.486Z,99297.33
2022-11-22T11:26:36.174Z,99297.44
2022-11-22T11:27:42.215Z,99299.95
2022-11-22T11:28:47.188Z,99306.05
2022-11-22T11:29:52.640Z,99303.85
2022-11-22T11:30:58.025Z,99309.09
2022-11-22T11:32:17.356Z,99308.87
2022-11-22T11:33:21.979Z,99313.34
2022-11-22T11:34:30.507Z,99314.97
2022-11-22T11:35:34.396Z,99314.14
2022-11-22T11:36:39.668Z,99316.14
2022-11-22T11:37:45.710Z,99321.52
2022-11-22T11:38:50.646Z,99315.91
2022-11-22T11:39:54.033Z,99329.74
2022-11-22T11:40:56.484Z,99321.47
2022-11-22T11:42:00.441Z,99322.66
2022-11-22T11:43:17.999Z,99316.93
2022-11-22T11:44:33.526Z,99315.94
2022-11-22T11:47:00.534Z,99315.70
2022-11-22T11:48:06.141Z,99311.90
2022-11-22T11:49:17.044Z,99322.33
2022-11-22T11:50:23.948Z,99311.31
2022-11-22T11:51:33.128Z,99316.45
2022-11-22T11:52:36.839Z,99308.28
2022-11-22T11:53:40.565Z,99313.67
2022-11-22T11:54:47.608Z,99312.19
2022-11-22T11:55:51.123Z,99312.19
2022-11-22T11:56:57.980Z,99315.14
2022-11-22T11:58:02.833Z,99326.50
2022-11-22T11:59:07.892Z,99324.02
2022-11-22T12:00:12.274Z,99326.50
2022-11-22T12:01:17.526Z,99328.97
2022-11-22T12:02:24.768Z,99327.42
2022-11-22T12:03:31.375Z,99318.00
2022-11-22T12:04:36.595Z,99325.88
2022-11-22T12:05:40.028Z,99326.34
2022-11-22T12:06:47.169Z,99329.82
2022-11-22T12:07:51.845Z,99322.31
2022-11-22T12:08:55.537Z,99320.55
2022-11-22T12:09:58.310Z,99314.45
2022-11-22T12:11:08.594Z,99325.50
2022-11-22T12:12:17.113Z,99319.00
2022-11-22T12:13:32.952Z,99317.63
2022-11-22T12:15:09.299Z,99319.48
2022-11-22T12:15:47.588Z,99317.00
2022-11-22T12:16:52.648Z,99322.33
2022-11-22T12:18:03.465Z,99323.88
2022-11-22T12:19:08.744Z,99321.48
2022-11-22T12:20:25.973Z,99329.82
2022-11-22T12:21:58.102Z,99334.22
2022-11-22T12:23:12.215Z,99329.59
2022-11-22T12:24:52.308Z,99334.14
2022-11-22T12:25:41.927Z,99339.23
2022-11-22T12:26:44.367Z,99348.39
2022-11-22T12:27:47.868Z,99348.61
2022-11-22T12:28:52.823Z,99357.02
2022-11-22T12:29:58.140Z,99354.54
2022-11-22T12:31:11.980Z,99358.86
2022-11-22T12:32:30.840Z,99359.34
2022-11-22T12:34:59.450Z,99364.23
2022-11-22T12:36:09.004Z,99358.08
2022-11-22T12:37:15.371Z,99360.17
2022-11-22T12:38:20.424Z,99362.30
2022-11-22T12:39:24.531Z,99358.61
2022-11-22T12:40:29.707Z,99361.69
2022-11-22T12:41:35.942Z,99362.82
2022-11-22T12:42:46.964Z,99367.85
2022-11-22T12:43:58.097Z,99364.45
2022-11-22T12:45:07.497Z,99366.08
2022-11-22T12:46:12.507Z,99376.98
2022-11-22T12:47:17.802Z,99373.38
2022-11-22T12:48:26.586Z,99375.00
2022-11-22T12:49:30.841Z,99373.23
2022-11-22T12:50:35.406Z,99374.94
2022-11-22T12:51:50.402Z,99373.48
2022-11-22T12:52:55.900Z,99382.52
2022-11-22T12:54:04.484Z,99381.23
2022-11-22T12:55:21.816Z,99384.36
2022-11-22T12:56:43.399Z,99392.42
2022-11-22T12:57:52.851Z,99394.33
2022-11-22T12:59:06.277Z,99392.22
2022-11-22T13:00:11.656Z,99389.02
2022-11-22T13:01:21.206Z,99384.02
2022-11-22T13:02:42.895Z,99392.42
2022-11-22T13:03:48.527Z,99381.88
2022-11-22T13:04:55.244Z,99389.88
2022-11-22T13:05:59.790Z,99392.08
2022-11-22T13:07:05.140Z,99390.45
2022-11-22T13:08:19.648Z,99389.94
2022-11-22T13:09:30.089Z,99395.77
2022-11-22T13:10:40.997Z,99391.64
2022-11-22T13:11:46.327Z,99383.31
2022-11-22T13:12:50.066Z,99379.47
2022-11-22T13:13:54.074Z,99377.16
2022-11-22T13:15:02.516Z,99386.78
2022-11-22T13:16:10.886Z,99384.36
2022-11-22T13:17:17.166Z,99385.80
2022-11-22T13:18:25.906Z,99379.42
2022-11-22T13:19:30.668Z,99384.41
2022-11-22T13:20:41.249Z,99385.65
2022-11-22T13:21:58.321Z,99378.85
2022-11-22T13:23:09.549Z,99374.67
2022-11-22T13:24:30.908Z,99375.39
2022-11-22T13:25:36.017Z,99377.49
2022-11-22T13:26:45.084Z,99374.16
2022-11-22T13:27:50.650Z,99380.76
2022-11-22T13:28:55.592Z,99379.26
2022-11-22T13:30:02.116Z,99384.30
2022-11-22T13:31:06.257Z,99378.41
2022-11-22T13:32:13.763Z,99385.84
2022-11-22T13:33:18.387Z,99378.20
2022-11-22T13:34:23.446Z,99377.51
2022-11-22T13:35:40.187Z,99377.28
2022-11-22T13:36:46.177Z,99384.08
2022-11-22T13:37:53.401Z,99383.36
2022-11-22T13:38:59.087Z,99385.20
2022-11-22T13:40:13.674Z,99386.83
2022-11-22T13:41:21.151Z,99377.34
2022-11-22T13:42:25.387Z,99377.28
2022-11-22T13:43:34.130Z,99383.09
2022-11-22T13:44:43.005Z,99389.47
2022-11-22T13:45:57.753Z,99387.62
2022-11-22T13:47:05.720Z,99382.80
2022-11-22T13:48:10.800Z,99390.38
2022-11-22T13:49:15.976Z,99390.11
2022-11-22T13:50:38.698Z,99391.30
2022-11-22T13:51:51.238Z,99393.58
2022-11-22T13:52:53.745Z,99393.65
2022-11-22T13:53:59.807Z,99393.41
2022-11-22T13:55:05.872Z,99389.94
2022-11-22T13:56:18.475Z,99396.20
2022-11-22T13:57:32.305Z,99390.97
2022-11-22T13:58:52.935Z,99392.56
2022-11-22T14:00:15.683Z,99390.45
2022-11-22T14:01:39.857Z,99395.89
2022-11-22T14:02:51.089Z,99387.49
2022-11-22T14:03:54.776Z,99393.14
2022-11-22T14:04:57.153Z,99391.23
2022-11-22T14:06:01.296Z,99391.84
2022-11-22T14:07:09.558Z,99391.16
2022-11-22T14:08:33.171Z,99395.69
2022-11-22T14:09:47.082Z,99399.16
2022-11-22T14:10:55.451Z,99397.83
2022-11-22T14:12:05.423Z,99409.36
2022-11-22T14:13:13.296Z,99408.72
2022-11-22T14:14:18.358Z,99411.84
2022-11-22T14:15:26.573Z,99414.28
2022-11-22T14:16:46.982Z,99422.14
2022-11-22T14:17:53.143Z,99418.61
2022-11-22T14:19:10.000Z,99421.55
2022-11-22T14:20:19.970Z,99429.23
2022-11-22T14:21:42.077Z,99422.73
2022-11-22T14:22:55.309Z,99423.73
2022-11-22T14:24:00.347Z,99426.83
2022-11-22T14:25:13.786Z,99426.92
2022-11-22T14:26:21.484Z,99430.66
2022-11-22T14:27:28.525Z,99428.70
2022-11-22T14:28:33.596Z,99436.63
2022-11-22T14:29:50.758Z,99425.30
2022-11-22T14:30:53.460Z,99436.45
2022-11-22T14:32:01.867Z,99436.82
2022-11-22T14:33:06.091Z,99438.80
2022-11-22T14:35:30.489Z,99450.03
2022-11-22T14:36:34.468Z,99450.13
2022-11-22T14:37:48.147Z,99450.20
2022-11-22T14:38:51.516Z,99455.92
2022-11-22T14:40:05.412Z,99454.91
2022-11-22T14:41:30.285Z,99449.86
2022-11-22T14:42:38.590Z,99452.48
2022-11-22T14:43:41.989Z,99458.55
2022-11-22T14:44:46.225Z,99457.81
2022-11-22T14:45:51.715Z,99461.73
2022-11-22T14:46:56.370Z,99466.42
2022-11-22T14:48:01.254Z,99463.17
2022-11-22T14:49:10.310Z,99464.72
2022-11-22T14:50:15.761Z,99461.78
2022-11-22T14:51:26.726Z,99473.65
2022-11-22T14:52:33.197Z,99466.36
2022-11-22T14:53:47.166Z,99459.95
2022-11-22T14:54:53.374Z,99469.95
2022-11-22T14:56:10.422Z,99467.14
2022-11-22T14:57:16.505Z,99465.84
2022-11-22T14:58:24.153Z,99465.84
2022-11-22T14:59:40.936Z,99460.11
2022-11-22T15:01:05.146Z,99461.25
2022-11-22T15:02:15.541Z,99465.64
2022-11-22T15:03:19.639Z,99463.52
2022-11-22T15:09:13.166Z,99454.38
2022-11-22T15:09:14.764Z,99456.08
2022-11-22T15:09:17.864Z,99460.89
2022-11-22T15:09:18.205Z,99462.73
2022-11-22T15:09:48.729Z,99460.53
2022-11-22T15:10:46.225Z,99458.97
2022-11-22T15:12:08.255Z,99467.97
2022-11-22T15:13:19.605Z,99459.20
2022-11-22T15:14:24.035Z,99463.71
2022-11-22T15:58:00.708Z,99491.61
2022-11-22T15:59:07.008Z,99486.01
2022-11-22T16:00:13.838Z,99493.24
2022-11-22T16:01:19.546Z,99496.48
2022-11-22T16:02:26.094Z,99493.02
2022-11-22T16:03:38.278Z,99493.11
2022-11-22T16:04:44.584Z,99494.09
2022-11-22T16:06:08.847Z,99501.82
2022-11-22T16:06:56.737Z,99499.11
2022-11-22T16:08:01.544Z,99505.98
2022-11-22T16:09:06.449Z,99496.16
2022-11-22T16:10:12.598Z,99504.14
2022-11-22T16:11:30.915Z,99510.50
2022-11-22T16:12:38.496Z,99500.97
2022-11-22T16:13:42.524Z,99501.89
2022-11-22T16:14:46.855Z,99506.11
2022-11-22T20:39:10.606Z,99570.36
2022-11-22T20:40:14.492Z,99568.53
2022-11-22T20:42:41.873Z,99569.31
2022-11-22T20:43:44.540Z,99571.64
2022-11-22T20:44:49.227Z,99572.78
2022-11-22T20:46:07.135Z,99576.77
2022-11-22T20:47:10.618Z,99573.05
2022-11-22T20:48:15.168Z,99577.17
2022-11-22T20:49:19.718Z,99579.44
2022-11-22T20:50:22.594Z,99578.66
2022-11-22T20:51:26.728Z,99581.34
2022-11-22T20:52:29.086Z,99580.23
2022-11-22T20:53:33.111Z,99581.93
2022-11-22T20:54:36.928Z,99582.00
2022-11-22T20:55:40.050Z,99583.64
2022-11-22T20:56:44.063Z,99580.23
2022-11-22T20:57:47.443Z,99580.95
2022-11-22T20:58:50.007Z,99589.59
2022-11-22T20:59:54.103Z,99587.05
2022-11-22T21:00:57.679Z,99587.89
2022-11-22T21:02:01.445Z,99588.87
2022-11-22T21:03:05.062Z,99593.98
2022-11-22T21:04:07.220Z,99594.91
2022-11-22T21:05:12.194Z,99593.98
2022-11-22T21:06:16.099Z,99590.45
2022-11-22T21:07:19.471Z,99593.83
2022-11-22T21:08:23.290Z,99600.02
2022-11-22T21:09:26.729Z,99585.97
2022-11-22T21:10:30.025Z,99591.30
2022-11-22T21:11:33.438Z,99592.34
2022-11-22T21:12:36.721Z,99599.36
2022-11-22T21:13:40.333Z,99596.61
2022-11-22T21:14:45.497Z,99591.30
2022-11-22T21:15:48.804Z,99598.70
2022-11-22T21:16:52.089Z,99608.27
2022-11-22T21:18:23.125Z,99610.76
2022-11-22T21:19:02.312Z,99607.09
2022-11-22T21:20:06.375Z,99612.84
2022-11-22T21:21:11.238Z,99619.53
2022-11-22T21:22:14.744Z,99614.23
2022-11-22T21:23:18.144Z,99625.56
2022-11-22T21:24:21.440Z,99626.67
2022-11-22T21:25:25.152Z,99621.30
2022-11-22T21:26:31.801Z,99629.64
2022-11-22T21:27:35.612Z,99629.70
2022-11-22T21:28:40.471Z,99627.93
2022-11-22T21:29:43.142Z,99633.11
2022-11-22T21:30:46.856Z,99634.94
2022-11-22T21:31:49.618Z,99645.16
2022-11-22T21:32:55.673Z,99636.04
2022-11-22T21:33:58.850Z,99641.76
2022-11-22T21:35:01.817Z,99641.76
2022-11-22T21:36:06.655Z,99643.72
2022-11-22T21:37:09.546Z,99641.63
2022-11-22T21:38:14.819Z,99643.84
2022-11-22T21:39:19.257Z,99643.84
2022-11-22T21:40:22.383Z,99643.84
2022-11-22T21:41:39.414Z,99645.61
2022-11-22T21:42:28.952Z,99646.33
2022-11-22T21:43:32.977Z,99648.16
2022-11-22T21:44:36.739Z,99649.02
2022-11-22T21:45:42.530Z,99641.53
2022-11-22T21:46:46.000Z,99645.61
2022-11-22T21:47:50.560Z,99648.42